Time;durP1;ratioP1;P1;durP2;ratioP2;P2;SDS_P1;SDS_P2;PMS_P1;PMS_P2;Temp;Humidity;BMP_temperature;BMP_pressure;BME280_temperature;BME280_humidity;BME280_pressure;Samples;Min_cycle;Max_cycle;Signal;HPM_P1;HPM_P2
2021/11/14 00:01:34;;;;;;;;;;;;;;;;;;5015817;28;20450;-90
2021/11/14 00:04:01;;;;;;;;;;;;;;;;;;5013592;28;19983;-91
2021/11/14 00:06:27;;;;;;;;;;;;;;;;;;4994313;28;19970;-90
2021/11/14 00:08:53;;;;;;;;;;;;;;;;;;5014491;28;19953;-93
2021/11/14 00:11:20;;;;;;;;;;;;;;;;;;5006969;28;19941;-93
2021/11/14 00:13:46;;;;;;;;;;;;;;;;;;4998044;28;19941;-89
2021/11/14 00:16:12;;;;;;;;;;;;;;;;;;5010854;28;19980;-89
2021/11/14 00:18:38;;;;;;;;;;;;;;;;;;5012194;28;19924;-90
2021/11/14 00:21:04;;;;;;;;;;;;;;;;;;5019739;28;19913;-87
2021/11/14 00:23:31;;;;;;;;;;;;;;;;;;5013833;28;21814;-87
2021/11/14 00:25:57;;;;;;;;;;;;;;;;;;5015806;28;19910;-88
2021/11/14 00:28:23;;;;;;;;;;;;;;;;;;5017962;28;19937;-88
2021/11/14 00:30:49;;;;;;;;;;;;;;;;;;5013286;28;19957;-88
2021/11/14 00:33:17;;;;;;;;;;;;;;;;;;5010536;28;20346;-88
2021/11/14 00:35:43;;;;;;;;;;;;;;;;;;5007641;28;19940;-89
2021/11/14 00:38:10;;;;;;;;;;;;;;;;;;5010421;28;20258;-89
2021/11/14 00:40:36;;;;;;;;;;;;;;;;;;5013636;28;20296;-90
2021/11/14 00:43:05;;;;;;;;;;;;;;;;;;5018041;28;20327;-89
2021/11/14 00:45:31;;;;;;;;;;;;;;;;;;5012736;28;19920;-89
2021/11/14 00:47:58;;;;;;;;;;;;;;;;;;5010776;28;19938;-90
2021/11/14 00:50:24;;;;;;;;;;;;;;;;;;5012290;28;19924;-88
2021/11/14 00:52:50;;;;;;;;;;;;;;;;;;5009484;28;19941;-89
2021/11/14 00:55:16;;;;;;;;;;;;;;;;;;5011781;28;20562;-88
2021/11/14 00:57:42;;;;;;;;;;;;;;;;;;5014475;28;19965;-88
2021/11/14 01:00:10;;;;;;;;;;;;;;;;;;5003279;28;19975;-88
2021/11/14 01:02:36;;;;;;;;;;;;;;;;;;5014418;28;19960;-92
2021/11/14 01:05:02;;;;;;;;;;;;;;;;;;5014941;28;19917;-91
2021/11/14 01:07:28;;;;;;;;;;;;;;;;;;5013672;28;19913;-90
2021/11/14 01:09:54;;;;;;;;;;;;;;;;;;5015432;28;20361;-93
2021/11/14 01:12:20;;;;;;;;;;;;;;;;;;5014871;28;19917;-93
2021/11/14 01:14:47;;;;;;;;;;;;;;;;;;5015334;28;20548;-92
2021/11/14 01:17:13;;;;;;;;;;;;;;;;;;5012514;28;19944;-93
2021/11/14 01:19:39;;;;;;;;;;;;;;;;;;5010150;28;19967;-91
2021/11/14 01:22:05;;;;;;;;;;;;;;;;;;5012058;28;19913;-89
2021/11/14 01:24:31;;;;;;;;;;;;;;;;;;5010739;28;20001;-90
2021/11/14 01:26:58;;;;;;;;;;;;;;;;;;4992869;28;19914;-88
2021/11/14 01:29:24;;;;;;;;;;;;;;;;;;5006988;28;19925;-90
2021/11/14 01:31:53;;;;;;;;;;;;;;;;;;5013640;28;19988;-89
2021/11/14 01:34:19;;;;;;;;;;;;;;;;;;5010649;28;19914;-90
2021/11/14 01:36:46;;;;;;;;;;;;;;;;;;5013877;28;20372;-91
2021/11/14 01:39:12;;;;;;;;;;;;;;;;;;5009864;28;19917;-88
2021/11/14 01:41:38;;;;;;;;;;;;;;;;;;4995158;28;19913;-91
2021/11/14 01:44:04;;;;;;;;;;;;;;;;;;5012381;28;20340;-91
2021/11/14 01:46:31;;;;;;;;;;;;;;;;;;4995308;28;20321;-91
2021/11/14 01:48:57;;;;;;;;;;;;;;;;;;5013826;28;20265;-90
2021/11/14 01:51:25;;;;;;;;;;;;;;;;;;5015307;28;19948;-89
2021/11/14 01:53:51;;;;;;;;;;;;;;;;;;4995985;28;19917;-89
2021/11/14 01:56:17;;;;;;;;;;;;;;;;;;5009971;28;20494;-89
2021/11/14 01:58:43;;;;;;;;;;;;;;;;;;5012687;28;19995;-86
2021/11/14 02:01:10;;;;;;;;;;;;;;;;;;5010391;28;19945;-86
2021/11/14 02:03:36;;;;;;;;;;;;;;;;;;5011630;28;19953;-90
2021/11/14 02:06:04;;;;;;;;;;;;;;;;;;5005085;28;19972;-85
2021/11/14 02:08:30;;;;;;;;;;;;;;;;;;5006630;28;21167;-87
2021/11/14 02:10:56;;;;;;;;;;;;;;;;;;5003656;28;19963;-85
2021/11/14 02:13:22;;;;;;;;;;;;;;;;;;5007594;28;19983;-87
2021/11/14 02:15:49;;;;;;;;;;;;;;;;;;5010092;28;19957;-89
2021/11/14 02:18:15;;;;;;;;;;;;;;;;;;5011699;28;19963;-90
2021/11/14 02:20:43;;;;;;;;;;;;;;;;;;5010141;28;19937;-90
2021/11/14 02:23:11;;;;;;;;;;;;;;;;;;5014152;28;20314;-89
2021/11/14 02:25:37;;;;;;;;;;;;;;;;;;5010342;28;19944;-91
2021/11/14 02:28:03;;;;;;;;;;;;;;;;;;5008478;28;20463;-91
2021/11/14 02:30:30;;;;;;;;;;;;;;;;;;5014145;28;19917;-92
2021/11/14 02:32:56;;;;;;;;;;;;;;;;;;5010666;28;19976;-90
2021/11/14 02:35:22;;;;;;;;;;;;;;;;;;5008602;28;19967;-88
2021/11/14 02:37:49;;;;;;;;;;;;;;;;;;5011143;28;19948;-89
2021/11/14 02:40:15;;;;;;;;;;;;;;;;;;5009914;28;19913;-91
2021/11/14 02:42:41;;;;;;;;;;;;;;;;;;5008358;28;19945;-89
2021/11/14 02:45:07;;;;;;;;;;;;;;;;;;5007318;28;20498;-89
2021/11/14 02:47:33;;;;;;;;;;;;;;;;;;5004542;28;19940;-89
2021/11/14 02:50:03;;;;;;;;;;;;;;;;;;5001045;28;19917;-89
2021/11/14 02:52:29;;;;;;;;;;;;;;;;;;5009103;28;19941;-88
2021/11/14 02:54:55;;;;;;;;;;;;;;;;;;5000999;28;20345;-90
2021/11/14 02:57:21;;;;;;;;;;;;;;;;;;5007560;28;19951;-90
2021/11/14 02:59:48;;;;;;;;;;;;;;;;;;5011101;28;19920;-93
2021/11/14 03:02:15;;;;;;;;;;;;;;;;;;5011156;28;19948;-90
2021/11/14 03:04:41;;;;;;;;;;;;;;;;;;5010860;28;19920;-90
2021/11/14 03:07:07;;;;;;;;;;;;;;;;;;5009485;28;19949;-89
2021/11/14 03:09:33;;;;;;;;;;;;;;;;;;5007767;28;20599;-91
2021/11/14 03:12:00;;;;;;;;;;;;;;;;;;5007270;28;20933;-87
2021/11/14 03:14:26;;;;;;;;;;;;;;;;;;5010764;28;19987;-87
2021/11/14 03:16:52;;;;;;;;;;;;;;;;;;5006041;28;19975;-88
2021/11/14 03:19:19;;;;;;;;;;;;;;;;;;5007175;28;19917;-89
2021/11/14 03:21:45;;;;;;;;;;;;;;;;;;5010513;28;19924;-90
2021/11/14 03:24:11;;;;;;;;;;;;;;;;;;4989950;28;20438;-91
2021/11/14 03:26:37;;;;;;;;;;;;;;;;;;5006276;28;19921;-91
2021/11/14 03:29:04;;;;;;;;;;;;;;;;;;4994155;28;19952;-93
2021/11/14 03:31:30;;;;;;;;;;;;;;;;;;5009609;28;19957;-89
2021/11/14 03:33:57;;;;;;;;;;;;;;;;;;5009896;28;19956;-88
2021/11/14 03:36:23;;;;;;;;;;;;;;;;;;5001147;28;19970;-87
2021/11/14 03:38:49;;;;;;;;;;;;;;;;;;5008434;28;19949;-88
2021/11/14 03:41:15;;;;;;;;;;;;;;;;;;5005664;28;19937;-89
2021/11/14 03:43:42;;;;;;;;;;;;;;;;;;5005309;28;19913;-87
2021/11/14 03:46:08;;;;;;;;;;;;;;;;;;5008699;28;19953;-90
2021/11/14 03:48:34;;;;;;;;;;;;;;;;;;5008228;28;20505;-88
2021/11/14 03:51:00;;;;;;;;;;;;;;;;;;5009443;28;19920;-88
2021/11/14 03:53:26;;;;;;;;;;;;;;;;;;5013034;28;20745;-90
2021/11/14 03:55:53;;;;;;;;;;;;;;;;;;5013094;28;20349;-89
2021/11/14 03:58:19;;;;;;;;;;;;;;;;;;4996143;28;19945;-88
2021/11/14 04:00:45;;;;;;;;;;;;;;;;;;5012851;28;20278;-89
2021/11/14 04:03:11;;;;;;;;;;;;;;;;;;5018708;28;19945;-88
2021/11/14 04:05:38;;;;;;;;;;;;;;;;;;5013332;28;19913;-89
2021/11/14 04:08:04;;;;;;;;;;;;;;;;;;5013651;28;19957;-87
2021/11/14 04:10:30;;;;;;;;;;;;;;;;;;5011367;28;20269;-88
2021/11/14 04:12:56;;;;;;;;;;;;;;;;;;5011301;28;19960;-86
2021/11/14 04:15:22;;;;;;;;;;;;;;;;;;4999744;28;20454;-86
2021/11/14 04:17:55;;;;;;;;;;;;;;;;;;5012259;28;19951;-87
2021/11/14 04:20:21;;;;;;;;;;;;;;;;;;5009178;28;19913;-86
2021/11/14 04:22:48;;;;;;;;;;;;;;;;;;5012153;28;19917;-86
2021/11/14 04:25:14;;;;;;;;;;;;;;;;;;5010747;28;19909;-87
2021/11/14 04:27:40;;;;;;;;;;;;;;;;;;5013148;28;19944;-88
2021/11/14 04:30:06;;;;;;;;;;;;;;;;;;5011635;28;20404;-87
2021/11/14 04:32:32;;;;;;;;;;;;;;;;;;5012584;28;19964;-87
2021/11/14 04:34:58;;;;;;;;;;;;;;;;;;5011672;28;20479;-87
2021/11/14 04:37:25;;;;;;;;;;;;;;;;;;4999059;28;20405;-85
2021/11/14 04:39:51;;;;;;;;;;;;;;;;;;5010667;28;19953;-90
2021/11/14 04:42:19;;;;;;;;;;;;;;;;;;5013128;28;19932;-90
2021/11/14 04:44:45;;;;;;;;;;;;;;;;;;4995329;28;19953;-92
2021/11/14 04:47:12;;;;;;;;;;;;;;;;;;5010226;28;19941;-89
2021/11/14 04:49:38;;;;;;;;;;;;;;;;;;5013308;28;20435;-92
2021/11/14 04:52:04;;;;;;;;;;;;;;;;;;5012286;28;19944;-89
2021/11/14 04:54:30;;;;;;;;;;;;;;;;;;5013322;28;19921;-88
2021/11/14 04:56:56;;;;;;;;;;;;;;;;;;5012939;28;19971;-90
2021/11/14 04:59:23;;;;;;;;;;;;;;;;;;5011073;28;20008;-90
2021/11/14 05:01:49;;;;;;;;;;;;;;;;;;5006245;28;20395;-91
2021/11/14 05:04:15;;;;;;;;;;;;;;;;;;5009180;28;19945;-90
2021/11/14 05:06:41;;;;;;;;;;;;;;;;;;5012723;28;19956;-86
2021/11/14 05:09:07;;;;;;;;;;;;;;;;;;5015062;28;19968;-87
2021/11/14 05:11:34;;;;;;;;;;;;;;;;;;5011414;28;20369;-88
2021/11/14 05:14:00;;;;;;;;;;;;;;;;;;5011724;28;19920;-87
2021/11/14 05:16:29;;;;;;;;;;;;;;;;;;5006870;28;20381;-88
2021/11/14 05:18:55;;;;;;;;;;;;;;;;;;5010557;28;19914;-90
2021/11/14 05:21:21;;;;;;;;;;;;;;;;;;5012218;28;19948;-89
2021/11/14 05:23:47;;;;;;;;;;;;;;;;;;5013162;28;20000;-92
2021/11/14 05:26:13;;;;;;;;;;;;;;;;;;5011079;28;19957;-91
2021/11/14 05:28:40;;;;;;;;;;;;;;;;;;5011916;28;19949;-89
2021/11/14 05:31:06;;;;;;;;;;;;;;;;;;5009841;28;19952;-88
2021/11/14 05:33:32;;;;;;;;;;;;;;;;;;5012129;28;19949;-90
2021/11/14 05:35:58;;;;;;;;;;;;;;;;;;5012869;28;20357;-91
2021/11/14 05:38:24;;;;;;;;;;;;;;;;;;5010024;28;19971;-90
2021/11/14 05:40:51;;;;;;;;;;;;;;;;;;5012435;28;20546;-88
2021/11/14 05:43:17;;;;;;;;;;;;;;;;;;5010201;28;19967;-89
2021/11/14 05:45:43;;;;;;;;;;;;;;;;;;5012516;28;19913;-89
2021/11/14 05:48:09;;;;;;;;;;;;;;;;;;5011767;28;19947;-89
2021/11/14 05:50:35;;;;;;;;;;;;;;;;;;5007363;28;20420;-88
2021/11/14 05:53:02;;;;;;;;;;;;;;;;;;5007256;28;19956;-85
2021/11/14 05:55:28;;;;;;;;;;;;;;;;;;5000394;28;19964;-88
2021/11/14 05:58:07;;;;;;;;;;;;;;;;;;4991121;28;19917;-91
2021/11/14 06:06:03;;;;;;;;;;;;;;;;;;4972275;28;19914;-90
2021/11/14 06:08:30;;;;;;;;;;;;;;;;;;4990053;28;19953;-91
2021/11/14 06:10:57;;;;;;;;;;;;;;;;;;4995686;28;20560;-90
2021/11/14 06:13:23;;;;;;;;;;;;;;;;;;4989783;28;19961;-90
2021/11/14 06:15:49;;;;;;;;;;;;;;;;;;4988906;28;19949;-91
2021/11/14 06:18:16;;;;;;;;;;;;;;;;;;4988667;28;19914;-88
2021/11/14 06:20:43;;;;;;;;;;;;;;;;;;4989162;28;19913;-90
2021/11/14 06:23:10;;;;;;;;;;;;;;;;;;4991214;28;19960;-89
2021/11/14 06:25:36;;;;;;;;;;;;;;;;;;4988822;28;19960;-92
2021/11/14 06:28:02;;;;;;;;;;;;;;;;;;4994149;28;19945;-91
2021/11/14 06:30:28;;;;;;;;;;;;;;;;;;4990034;28;19965;-91
2021/11/14 06:32:54;;;;;;;;;;;;;;;;;;4992985;28;19910;-91
2021/11/14 06:35:21;;;;;;;;;;;;;;;;;;4980316;28;19957;-90
2021/11/14 06:37:47;;;;;;;;;;;;;;;;;;4988669;28;19957;-91
2021/11/14 06:40:13;;;;;;;;;;;;;;;;;;4987831;28;19968;-90
2021/11/14 06:42:40;;;;;;;;;;;;;;;;;;4991580;28;19959;-90
2021/11/14 06:45:06;;;;;;;;;;;;;;;;;;4992992;28;19953;-89
2021/11/14 06:47:32;;;;;;;;;;;;;;;;;;4988802;28;19964;-90
2021/11/14 06:49:58;;;;;;;;;;;;;;;;;;4974422;28;19953;-89
2021/11/14 06:52:24;;;;;;;;;;;;;;;;;;4988483;28;19972;-86
2021/11/14 06:54:50;;;;;;;;;;;;;;;;;;4976118;28;19914;-87
2021/11/14 06:57:18;;;;;;;;;;;;;;;;;;5008621;28;19910;-85
2021/11/14 06:59:44;;;;;;;;;;;;;;;;;;5009644;28;20361;-86
2021/11/14 07:02:10;;;;;;;;;;;;;;;;;;4990527;28;19948;-86
2021/11/14 07:04:37;;;;;;;;;;;;;;;;;;5008658;28;20028;-83
2021/11/14 07:07:03;;;;;;;;;;;;;;;;;;5010971;28;19949;-86
2021/11/14 07:09:29;;;;;;;;;;;;;;;;;;5008436;28;19944;-87
2021/11/14 07:11:55;;;;;;;;;;;;;;;;;;4971309;28;20529;-90
2021/11/14 07:14:22;;;;;;;;;;;;;;;;;;5011086;28;20060;-85
2021/11/14 07:16:48;;;;;;;;;;;;;;;;;;5008848;28;19976;-89
2021/11/14 07:19:14;;;;;;;;;;;;;;;;;;5011406;28;19964;-89
2021/11/14 07:21:40;;;;;;;;;;;;;;;;;;5000665;28;19983;-89
2021/11/14 07:24:06;;;;;;;;;;;;;;;;;;5006515;28;19999;-89
2021/11/14 07:26:33;;;;;;;;;;;;;;;;;;5010804;28;19967;-84
2021/11/14 07:28:59;;;;;;;;;;;;;;;;;;5008431;28;20330;-83
2021/11/14 07:31:25;;;;;;;;;;;;;;;;;;5008765;28;19948;-81
2021/11/14 07:33:51;;;;;;;;;;;;;;;;;;5008403;28;20597;-82
2021/11/14 07:36:17;;;;;;;;;;;;;;;;;;5009335;28;19949;-82
2021/11/14 07:38:44;;;;;;;;;;;;;;;;;;4996393;28;19978;-81
2021/11/14 07:41:10;;;;;;;;;;;;;;;;;;5009897;28;20329;-83
2021/11/14 07:43:36;;;;;;;;;;;;;;;;;;4998731;28;19956;-82
2021/11/14 07:46:02;;;;;;;;;;;;;;;;;;5013891;28;19909;-83
2021/11/14 07:48:29;;;;;;;;;;;;;;;;;;5008073;28;19966;-82
2021/11/14 07:50:56;;;;;;;;;;;;;;;;;;5009536;28;19965;-82
2021/11/14 07:53:23;;;;;;;;;;;;;;;;;;5001476;28;19964;-82
2021/11/14 07:55:49;;;;;;;;;;;;;;;;;;5012046;28;19960;-82
2021/11/14 07:58:15;;;;;;;;;;;;;;;;;;4999117;28;19957;-80
2021/11/14 08:00:41;;;;;;;;;;;;;;;;;;4995321;28;19945;-82
2021/11/14 08:03:10;;;;;;;;;;;;;;;;;;5009300;28;19964;-82
2021/11/14 08:05:36;;;;;;;;;;;;;;;;;;5008176;28;19959;-81
2021/11/14 08:08:03;;;;;;;;;;;;;;;;;;5009385;28;19967;-80
2021/11/14 08:10:33;;;;;;;;;;;;;;;;;;5007381;28;20032;-82
2021/11/14 08:12:59;;;;;;;;;;;;;;;;;;5007992;28;19945;-83
2021/11/14 08:15:25;;;;;;;;;;;;;;;;;;5006606;28;20666;-81
2021/11/14 08:17:51;;;;;;;;;;;;;;;;;;5010750;28;19964;-81
2021/11/14 08:20:17;;;;;;;;;;;;;;;;;;5009473;28;20329;-82
2021/11/14 08:22:46;;;;;;;;;;;;;;;;;;5006678;28;19952;-84
2021/11/14 08:25:12;;;;;;;;;;;;;;;;;;5010777;28;20341;-81
2021/11/14 08:27:39;;;;;;;;;;;;;;;;;;5004622;28;19948;-81
2021/11/14 08:30:08;;;;;;;;;;;;;;;;;;4991858;28;19913;-79
2021/11/14 08:32:34;;;;;;;;;;;;;;;;;;5009094;28;19940;-82
2021/11/14 08:35:00;;;;;;;;;;;;;;;;;;5009108;28;19964;-82
2021/11/14 08:37:27;;;;;;;;;;;;;;;;;;4991596;28;19964;-81
2021/11/14 08:39:53;;;;;;;;;;;;;;;;;;5007008;28;19957;-80
2021/11/14 08:42:19;;;;;;;;;;;;;;;;;;5006693;28;19921;-82
2021/11/14 08:44:45;;;;;;;;;;;;;;;;;;4985496;28;20388;-80
2021/11/14 08:47:11;;;;;;;;;;;;;;;;;;5007549;28;19940;-81
2021/11/14 08:49:38;;;;;;;;;;;;;;;;;;5008476;28;19941;-80
2021/11/14 08:52:04;;;;;;;;;;;;;;;;;;4991656;28;19947;-80
2021/11/14 08:54:30;;;;;;;;;;;;;;;;;;5011220;28;19968;-81
2021/11/14 08:56:56;;;;;;;;;;;;;;;;;;5005657;28;19980;-81
2021/11/14 08:59:23;;;;;;;;;;;;;;;;;;5005282;28;20497;-80
2021/11/14 09:01:49;;;;;;;;;;;;;;;;;;5009331;28;19961;-80
2021/11/14 09:04:15;;;;;;;;;;;;;;;;;;5010834;28;19937;-82
2021/11/14 09:06:41;;;;;;;;;;;;;;;;;;5009703;28;20350;-82
2021/11/14 09:09:10;;;;;;;;;;;;;;;;;;5008695;28;19971;-82
2021/11/14 09:11:36;;;;;;;;;;;;;;;;;;5013765;28;19956;-80
2021/11/14 09:14:03;;;;;;;;;;;;;;;;;;5008478;28;19963;-81
2021/11/14 09:16:29;;;;;;;;;;;;;;;;;;5011620;28;19975;-82
2021/11/14 09:18:55;;;;;;;;;;;;;;;;;;5006632;28;19917;-81
2021/11/14 09:21:21;;;;;;;;;;;;;;;;;;5005338;28;19955;-81
2021/11/14 09:23:48;;;;;;;;;;;;;;;;;;5010443;28;21208;-81
2021/11/14 09:26:14;;;;;;;;;;;;;;;;;;5006289;28;19921;-80
2021/11/14 09:28:42;;;;;;;;;;;;;;;;;;5006328;28;19941;-81
2021/11/14 09:31:09;;;;;;;;;;;;;;;;;;5011436;28;20453;-82
2021/11/14 09:33:36;;;;;;;;;;;;;;;;;;5007934;28;19983;-81
2021/11/14 09:36:02;;;;;;;;;;;;;;;;;;5012296;28;19925;-81
2021/11/14 09:38:28;;;;;;;;;;;;;;;;;;5007641;28;19955;-80
2021/11/14 09:40:54;;;;;;;;;;;;;;;;;;5009148;28;19960;-82
2021/11/14 09:43:21;;;;;;;;;;;;;;;;;;4995201;28;20003;-80
2021/11/14 09:45:47;;;;;;;;;;;;;;;;;;5008429;28;19949;-82
2021/11/14 09:48:13;;;;;;;;;;;;;;;;;;5003219;28;19989;-83
2021/11/14 09:50:39;;;;;;;;;;;;;;;;;;5006847;28;19948;-81
2021/11/14 09:53:05;;;;;;;;;;;;;;;;;;5009404;28;20017;-82
2021/11/14 09:55:35;;;;;;;;;;;;;;;;;;5006166;28;19980;-81
2021/11/14 09:58:01;;;;;;;;;;;;;;;;;;5006209;28;19953;-81
2021/11/14 10:00:28;;;;;;;;;;;;;;;;;;5005303;28;19976;-81
2021/11/14 10:02:54;;;;;;;;;;;;;;;;;;5006424;28;20373;-81
2021/11/14 10:05:20;;;;;;;;;;;;;;;;;;5007678;28;19957;-81
2021/11/14 10:07:46;;;;;;;;;;;;;;;;;;5010077;28;20545;-80
2021/11/14 10:10:12;;;;;;;;;;;;;;;;;;5007284;28;19949;-82
2021/11/14 10:12:39;;;;;;;;;;;;;;;;;;5008132;28;19944;-85
2021/11/14 10:15:05;;;;;;;;;;;;;;;;;;5006181;28;20399;-81
2021/11/14 10:17:31;;;;;;;;;;;;;;;;;;5005269;28;19921;-82
2021/11/14 10:19:57;;;;;;;;;;;;;;;;;;5003947;28;19948;-88
2021/11/14 10:22:23;;;;;;;;;;;;;;;;;;5009431;28;19945;-90
2021/11/14 10:24:50;;;;;;;;;;;;;;;;;;5009994;28;19952;-93
2021/11/14 10:27:17;;;;;;;;;;;;;;;;;;5011731;28;19918;-93
2021/11/14 10:29:43;;;;;;;;;;;;;;;;;;5010093;28;21101;-90
2021/11/14 10:32:10;;;;;;;;;;;;;;;;;;5009186;28;19948;-92
2021/11/14 10:34:39;;;;;;;;;;;;;;;;;;5004300;28;20371;-90
2021/11/14 10:37:05;;;;;;;;;;;;;;;;;;5007902;28;19936;-90
2021/11/14 10:39:31;;;;;;;;;;;;;;;;;;5007058;28;19945;-90
2021/11/14 10:41:58;;;;;;;;;;;;;;;;;;5010096;28;19968;-90
2021/11/14 10:44:24;;;;;;;;;;;;;;;;;;5013577;28;19920;-89
2021/11/14 10:46:51;;;;;;;;;;;;;;;;;;5010723;28;19960;-91
2021/11/14 10:49:17;;;;;;;;;;;;;;;;;;4993750;28;20333;-89
2021/11/14 10:51:43;;;;;;;;;;;;;;;;;;5007863;28;19947;-89
2021/11/14 10:54:12;;;;;;;;;;;;;;;;;;5008430;28;20422;-91
2021/11/14 10:56:38;;;;;;;;;;;;;;;;;;5000017;28;20352;-90
2021/11/14 10:59:05;;;;;;;;;;;;;;;;;;5010887;28;20946;-89
2021/11/14 11:01:31;;;;;;;;;;;;;;;;;;5005287;28;19956;-88
2021/11/14 11:03:57;;;;;;;;;;;;;;;;;;5011344;28;19914;-87
2021/11/14 11:06:25;;;;;;;;;;;;;;;;;;5009222;28;19967;-89
2021/11/14 11:08:51;;;;;;;;;;;;;;;;;;5010122;28;20299;-88
2021/11/14 11:11:17;;;;;;;;;;;;;;;;;;5005773;28;19929;-88
2021/11/14 11:13:43;;;;;;;;;;;;;;;;;;5012308;28;19950;-89
2021/11/14 11:16:10;;;;;;;;;;;;;;;;;;5007337;28;19941;-89
2021/11/14 11:18:38;;;;;;;;;;;;;;;;;;5005524;28;19960;-87
2021/11/14 11:21:05;;;;;;;;;;;;;;;;;;4987659;28;20307;-87
2021/11/14 11:23:31;;;;;;;;;;;;;;;;;;5007672;28;19961;-87
2021/11/14 11:25:57;;;;;;;;;;;;;;;;;;5007798;28;19920;-86
2021/11/14 11:28:23;;;;;;;;;;;;;;;;;;5011501;28;19941;-87
2021/11/14 11:30:50;;;;;;;;;;;;;;;;;;5011534;28;19972;-88
2021/11/14 11:33:16;;;;;;;;;;;;;;;;;;5013985;28;19953;-85
2021/11/14 11:35:42;;;;;;;;;;;;;;;;;;5015177;28;19979;-85
2021/11/14 11:38:08;;;;;;;;;;;;;;;;;;5008841;28;19956;-85
2021/11/14 11:40:34;;;;;;;;;;;;;;;;;;4995880;28;19913;-84
2021/11/14 11:43:01;;;;;;;;;;;;;;;;;;5009509;28;19949;-84
2021/11/14 11:45:27;;;;;;;;;;;;;;;;;;5008230;28;21610;-85
2021/11/14 11:47:53;;;;;;;;;;;;;;;;;;5008789;28;19961;-86
2021/11/14 11:50:19;;;;;;;;;;;;;;;;;;4989027;28;19914;-87
2021/11/14 11:52:46;;;;;;;;;;;;;;;;;;5013022;28;20290;-86
2021/11/14 11:55:12;;;;;;;;;;;;;;;;;;5010553;28;19957;-87
2021/11/14 11:57:38;;;;;;;;;;;;;;;;;;5006575;28;19964;-88
2021/11/14 12:00:05;;;;;;;;;;;;;;;;;;5013829;28;19913;-92
2021/11/14 12:02:31;;;;;;;;;;;;;;;;;;4979658;28;19918;-88
2021/11/14 12:04:57;;;;;;;;;;;;;;;;;;5009357;28;19953;-87
2021/11/14 12:07:27;;;;;;;;;;;;;;;;;;5009764;28;19913;-90
2021/11/14 12:09:54;;;;;;;;;;;;;;;;;;4995374;28;19955;-85
2021/11/14 12:12:20;;;;;;;;;;;;;;;;;;5009381;28;19977;-85
2021/11/14 12:14:46;;;;;;;;;;;;;;;;;;5010630;28;19961;-84
2021/11/14 12:17:13;;;;;;;;;;;;;;;;;;4992890;28;20246;-84
2021/11/14 12:19:39;;;;;;;;;;;;;;;;;;5009043;28;19988;-86
2021/11/14 12:22:06;;;;;;;;;;;;;;;;;;5013897;28;19942;-92
2021/11/14 12:24:32;;;;;;;;;;;;;;;;;;5004579;28;19944;-86
2021/11/14 12:26:58;;;;;;;;;;;;;;;;;;5011947;28;20333;-85
2021/11/14 12:29:40;;;;;;;;;;;;;;;;;;5012700;28;19917;-90
2021/11/14 12:32:09;;;;;;;;;;;;;;;;;;5005786;28;20015;-88
2021/11/14 12:34:35;;;;;;;;;;;;;;;;;;5014699;28;19967;-91
2021/11/14 12:37:02;;;;;;;;;;;;;;;;;;5012406;28;19976;-84
2021/11/14 12:39:28;;;;;;;;;;;;;;;;;;5008291;28;20800;-82
2021/11/14 12:41:54;;;;;;;;;;;;;;;;;;5010744;28;19913;-81
2021/11/14 12:44:20;;;;;;;;;;;;;;;;;;5006590;28;19952;-81
2021/11/14 12:46:46;;;;;;;;;;;;;;;;;;5008511;28;20344;-83
2021/11/14 12:49:15;;;;;;;;;;;;;;;;;;5008616;28;19956;-83
2021/11/14 12:51:41;;;;;;;;;;;;;;;;;;5009594;28;19964;-84
2021/11/14 12:54:07;;;;;;;;;;;;;;;;;;5009094;28;20451;-84
2021/11/14 12:56:34;;;;;;;;;;;;;;;;;;4980179;28;20023;-84
2021/11/14 12:59:01;;;;;;;;;;;;;;;;;;4986955;28;19941;-83
2021/11/14 13:01:27;;;;;;;;;;;;;;;;;;4988382;28;20355;-84
2021/11/14 13:03:53;;;;;;;;;;;;;;;;;;4986363;28;19952;-83
2021/11/14 13:06:19;;;;;;;;;;;;;;;;;;4987759;28;19957;-84
2021/11/14 13:08:48;;;;;;;;;;;;;;;;;;4990001;28;19953;-83
2021/11/14 13:11:14;;;;;;;;;;;;;;;;;;4983627;28;19996;-83
2021/11/14 13:13:41;;;;;;;;;;;;;;;;;;4989684;28;19921;-83
2021/11/14 13:16:07;;;;;;;;;;;;;;;;;;4988147;28;20365;-83
2021/11/14 13:18:33;;;;;;;;;;;;;;;;;;4988614;28;20675;-83
2021/11/14 13:21:00;;;;;;;;;;;;;;;;;;4991723;28;19960;-84
2021/11/14 13:23:26;;;;;;;;;;;;;;;;;;4988965;28;20340;-83
2021/11/14 13:25:52;;;;;;;;;;;;;;;;;;4975539;28;19978;-84
2021/11/14 13:28:19;;;;;;;;;;;;;;;;;;4994489;28;19953;-82
2021/11/14 13:30:45;;;;;;;;;;;;;;;;;;4986908;28;19953;-82
2021/11/14 13:33:11;;;;;;;;;;;;;;;;;;4987481;28;19949;-82
2021/11/14 13:35:37;;;;;;;;;;;;;;;;;;4986112;28;19945;-83
2021/11/14 13:38:03;;;;;;;;;;;;;;;;;;4985150;28;19969;-83
2021/11/14 13:40:30;;;;;;;;;;;;;;;;;;4986845;28;20041;-83
2021/11/14 13:43:01;;;;;;;;;;;;;;;;;;4971630;28;19956;-84
2021/11/14 13:45:27;;;;;;;;;;;;;;;;;;4986055;28;19949;-83
2021/11/14 13:47:54;;;;;;;;;;;;;;;;;;4981670;28;20025;-83
2021/11/14 13:50:20;;;;;;;;;;;;;;;;;;4987664;28;20455;-84
2021/11/14 13:52:47;;;;;;;;;;;;;;;;;;4989844;28;19952;-82
2021/11/14 13:55:13;;;;;;;;;;;;;;;;;;4989097;28;19968;-82
2021/11/14 13:57:39;;;;;;;;;;;;;;;;;;5008763;28;19960;-83
2021/11/14 14:00:05;;;;;;;;;;;;;;;;;;5011274;28;20349;-83
2021/11/14 14:02:32;;;;;;;;;;;;;;;;;;5008943;28;19952;-82
2021/11/14 14:04:58;;;;;;;;;;;;;;;;;;5007778;28;19948;-82
2021/11/14 14:07:24;;;;;;;;;;;;;;;;;;5006797;28;19945;-83
2021/11/14 14:09:50;;;;;;;;;;;;;;;;;;5011473;28;19949;-84
2021/11/14 14:12:16;;;;;;;;;;;;;;;;;;5009825;28;19960;-83
2021/11/14 14:14:43;;;;;;;;;;;;;;;;;;5007984;28;20002;-84
2021/11/14 14:17:09;;;;;;;;;;;;;;;;;;5004408;28;19953;-81
2021/11/14 14:19:35;;;;;;;;;;;;;;;;;;5006280;28;19963;-82
2021/11/14 14:22:01;;;;;;;;;;;;;;;;;;5009453;28;19947;-84
2021/11/14 14:24:28;;;;;;;;;;;;;;;;;;5010336;28;21891;-83
2021/11/14 14:26:54;;;;;;;;;;;;;;;;;;5008395;28;20482;-83
2021/11/14 14:29:20;;;;;;;;;;;;;;;;;;5007673;28;20082;-82
2021/11/14 14:31:46;;;;;;;;;;;;;;;;;;5007375;28;19945;-83
2021/11/14 14:34:13;;;;;;;;;;;;;;;;;;5012965;28;19948;-84
2021/11/14 14:36:39;;;;;;;;;;;;;;;;;;5015802;28;19960;-83
2021/11/14 14:39:06;;;;;;;;;;;;;;;;;;5006016;28;20163;-82
2021/11/14 14:41:32;;;;;;;;;;;;;;;;;;5008854;28;19945;-84
2021/11/14 14:43:58;;;;;;;;;;;;;;;;;;5007279;28;19987;-83
2021/11/14 14:46:24;;;;;;;;;;;;;;;;;;5016431;28;19948;-84
2021/11/14 14:48:51;;;;;;;;;;;;;;;;;;5004080;28;19958;-83
2021/11/14 14:51:17;;;;;;;;;;;;;;;;;;5007079;28;20002;-82
2021/11/14 14:53:43;;;;;;;;;;;;;;;;;;5009107;28;19957;-81
2021/11/14 14:56:09;;;;;;;;;;;;;;;;;;5006830;28;19972;-83
2021/11/14 14:58:35;;;;;;;;;;;;;;;;;;5008501;28;19952;-83
2021/11/14 15:01:02;;;;;;;;;;;;;;;;;;5007823;28;19959;-87
2021/11/14 15:03:29;;;;;;;;;;;;;;;;;;4992269;28;19991;-83
2021/11/14 15:05:55;;;;;;;;;;;;;;;;;;4987795;28;20024;-84
2021/11/14 15:08:21;;;;;;;;;;;;;;;;;;5006658;28;19944;-83
2021/11/14 15:10:48;;;;;;;;;;;;;;;;;;5008320;28;20679;-83
2021/11/14 15:13:14;;;;;;;;;;;;;;;;;;5008369;28;20373;-84
2021/11/14 15:15:40;;;;;;;;;;;;;;;;;;4982837;28;19941;-85
2021/11/14 15:18:07;;;;;;;;;;;;;;;;;;4998857;28;19996;-84
2021/11/14 15:20:33;;;;;;;;;;;;;;;;;;5007093;28;20325;-85
2021/11/14 15:22:59;;;;;;;;;;;;;;;;;;5010057;28;19949;-85
2021/11/14 15:25:25;;;;;;;;;;;;;;;;;;5010113;28;19937;-85
2021/11/14 15:27:51;;;;;;;;;;;;;;;;;;5008848;28;19952;-85
2021/11/14 15:30:22;;;;;;;;;;;;;;;;;;5008063;28;20296;-84
2021/11/14 15:33:06;;;;;;;;;;;;;;;;;;4952130;28;20096;-86
2021/11/14 15:35:42;;;;;;;;;;;;;;;;;;;;;
2021/11/14 15:38:09;;;;;;;;;;;;;;;;;;4982424;28;19921;-84
2021/11/14 15:40:36;;;;;;;;;;;;;;;;;;4977991;28;20588;-86
2021/11/14 15:43:02;;;;;;;;;;;;;;;;;;5009267;28;19945;-86
2021/11/14 15:45:33;;;;;;;;;;;;;;;;;;5004889;28;20023;-85
2021/11/14 15:47:59;;;;;;;;;;;;;;;;;;4981623;28;19917;-83
2021/11/14 15:50:27;;;;;;;;;;;;;;;;;;4994175;28;19961;-84
2021/11/14 15:52:56;;;;;;;;;;;;;;;;;;4980326;28;19920;-82
2021/11/14 15:55:22;;;;;;;;;;;;;;;;;;5014504;28;19960;-83
2021/11/14 15:57:51;;;;;;;;;;;;;;;;;;4999853;28;20108;-83
2021/11/14 16:00:17;;;;;;;;;;;;;;;;;;4982566;28;20458;-84
2021/11/14 16:02:50;;;;;;;;;;;;;;;;;;5009729;28;19972;-83
2021/11/14 16:05:17;;;;;;;;;;;;;;;;;;5010435;28;19943;-83
2021/11/14 16:07:43;;;;;;;;;;;;;;;;;;5008880;28;20428;-84
2021/11/14 16:10:10;;;;;;;;;;;;;;;;;;5009808;28;19937;-83
2021/11/14 16:12:36;;;;;;;;;;;;;;;;;;5013342;28;19941;-85
2021/11/14 16:15:04;;;;;;;;;;;;;;;;;;5010929;28;19995;-83
2021/11/14 16:17:30;;;;;;;;;;;;;;;;;;5010183;28;19991;-84
2021/11/14 16:19:57;;;;;;;;;;;;;;;;;;5009852;28;19949;-84
2021/11/14 16:22:23;;;;;;;;;;;;;;;;;;5012319;28;19947;-83
2021/11/14 16:24:49;;;;;;;;;;;;;;;;;;5009778;28;20389;-84
2021/11/14 16:27:15;;;;;;;;;;;;;;;;;;4993326;28;19913;-85
2021/11/14 16:29:41;;;;;;;;;;;;;;;;;;5008794;28;19949;-83
2021/11/14 16:32:08;;;;;;;;;;;;;;;;;;5011667;28;19925;-83
2021/11/14 16:34:34;;;;;;;;;;;;;;;;;;5008992;28;20384;-83
2021/11/14 16:37:00;;;;;;;;;;;;;;;;;;5011435;28;19971;-84
2021/11/14 16:39:26;;;;;;;;;;;;;;;;;;4998744;28;20341;-84
2021/11/14 16:41:53;;;;;;;;;;;;;;;;;;5007679;28;19937;-84
2021/11/14 16:44:19;;;;;;;;;;;;;;;;;;5007345;28;20408;-83
2021/11/14 16:46:46;;;;;;;;;;;;;;;;;;5008108;28;19913;-86